Mammoth Lakes, California
Current Conditions -  °F | °C
As of 2:15 PM on Monday 26 Jan 2015 (Local Time) from KMMH Reporting Station
Clear Clear  
Wind Chill: 59°   Ceiling: Unl
Heat Index: 59°   Visibility: 10mi
Dew Point: 16°   Wind: 13mph
Humidity: 19%   Direction: 100°E
Pressure: 30.15"   Gusts: 23mph
Location:  37.65°N, 118.97°W
Report Text: KMMH 262215Z AUTO 10011G20KT 10SM CLR 15/M09 A3015 RMK AO1
Loading
Personal Weather Stations






























Interactive Weather Map New forecast layout! Learn more

10-Day Weather Forecast

Advertisements
Track Severe Weather on mobile